createdAt,value
2019-01-21T00:00:02.347Z,0.00
2019-01-21T00:01:02.327Z,0.00
2019-01-21T00:02:11.093Z,0.00
2019-01-21T00:05:46.221Z,0.00
2019-01-21T00:06:46.124Z,0.00
2019-01-21T00:07:46.083Z,0.00
2019-01-21T00:08:46.077Z,0.00
2019-01-21T00:09:46.080Z,0.00
2019-01-21T00:10:46.066Z,0.00
2019-01-21T00:11:46.039Z,0.00
2019-01-21T00:12:46.014Z,0.00
2019-01-21T00:13:46.006Z,0.00
2019-01-21T00:14:45.976Z,0.00
2019-01-21T00:15:46.038Z,0.00
2019-01-21T00:16:46.000Z,0.00
2019-01-21T00:17:45.966Z,0.00
2019-01-21T00:18:45.904Z,0.00
2019-01-21T00:19:45.948Z,0.00
2019-01-21T00:20:45.950Z,0.00
2019-01-21T00:21:45.855Z,0.00
2019-01-21T00:22:45.841Z,0.00
2019-01-21T00:23:45.837Z,0.00
2019-01-21T00:24:45.824Z,0.00
2019-01-21T00:25:45.789Z,0.00
2019-01-21T00:26:45.774Z,0.00
2019-01-21T00:27:45.758Z,0.00
2019-01-21T00:28:45.743Z,0.00
2019-01-21T00:29:45.722Z,0.00
2019-01-21T00:30:45.733Z,0.00
2019-01-21T00:31:45.702Z,0.00
2019-01-21T00:32:45.683Z,0.00
2019-01-21T00:33:45.662Z,0.00
2019-01-21T00:34:45.655Z,0.00
2019-01-21T00:35:45.630Z,0.00
2019-01-21T00:36:45.610Z,0.00
2019-01-21T00:37:45.594Z,0.00
2019-01-21T00:38:45.590Z,0.00
2019-01-21T00:39:45.572Z,0.00
2019-01-21T00:40:45.560Z,0.00
2019-01-21T00:41:45.537Z,0.00
2019-01-21T00:42:45.508Z,0.00
2019-01-21T00:43:45.533Z,0.00
2019-01-21T00:44:45.521Z,0.00
2019-01-21T00:45:45.463Z,0.00
2019-01-21T00:46:45.445Z,0.00
2019-01-21T00:47:45.432Z,0.00
2019-01-21T00:48:45.409Z,0.00
2019-01-21T00:49:45.402Z,0.00
2019-01-21T00:50:45.408Z,0.00
2019-01-21T00:51:45.363Z,0.00
2019-01-21T00:52:45.359Z,0.00
2019-01-21T00:53:45.358Z,0.00
2019-01-21T00:54:45.353Z,0.00
2019-01-21T00:55:45.308Z,0.00
2019-01-21T00:56:45.283Z,0.00
2019-01-21T00:57:45.299Z,0.00
2019-01-21T00:58:45.271Z,0.00
2019-01-21T00:59:45.249Z,0.00
2019-01-21T01:00:45.859Z,0.00
2019-01-21T01:01:45.198Z,0.00
2019-01-21T01:02:45.202Z,0.00
2019-01-21T01:03:45.182Z,0.00
2019-01-21T01:04:45.188Z,0.00
2019-01-21T01:05:45.171Z,0.00
2019-01-21T01:06:45.119Z,0.00
2019-01-21T01:07:45.113Z,0.00
2019-01-21T01:08:45.123Z,0.00
2019-01-21T01:09:45.083Z,0.00
2019-01-21T01:10:45.091Z,0.00
2019-01-21T01:11:45.034Z,0.00
2019-01-21T01:12:45.045Z,0.00
2019-01-21T01:13:45.008Z,0.00
2019-01-21T01:14:45.016Z,0.00
2019-01-21T01:15:44.994Z,0.00
2019-01-21T01:16:44.957Z,0.00
2019-01-21T01:17:44.962Z,0.00
2019-01-21T01:18:44.959Z,0.00
2019-01-21T01:19:44.937Z,0.00
2019-01-21T01:20:44.888Z,0.00
2019-01-21T01:21:44.877Z,0.00
2019-01-21T01:22:44.876Z,0.00
2019-01-21T01:23:44.839Z,0.00
2019-01-21T01:24:44.851Z,0.00
2019-01-21T01:25:44.819Z,0.00
2019-01-21T01:26:44.804Z,0.00
2019-01-21T01:27:44.804Z,0.00
2019-01-21T01:28:44.756Z,0.00
2019-01-21T01:29:44.766Z,0.00
2019-01-21T01:30:44.726Z,0.00
2019-01-21T01:31:44.702Z,0.00
2019-01-21T01:32:44.707Z,0.00
2019-01-21T01:33:44.698Z,0.00
2019-01-21T01:34:44.650Z,0.00
2019-01-21T01:35:44.630Z,0.00
2019-01-21T01:36:44.626Z,0.00
2019-01-21T01:37:44.625Z,0.00
2019-01-21T01:38:44.591Z,0.00
2019-01-21T01:39:52.340Z,0.00
2019-01-21T01:41:49.119Z,0.00
2019-01-21T01:42:49.235Z,0.00
2019-01-21T01:43:49.042Z,0.00
2019-01-21T01:44:49.099Z,0.00
2019-01-21T01:45:48.966Z,0.00
2019-01-21T01:46:48.958Z,0.00
2019-01-21T01:47:48.941Z,0.00
2019-01-21T01:48:48.892Z,0.00
2019-01-21T01:49:48.879Z,0.00
2019-01-21T01:50:48.887Z,0.00
2019-01-21T01:51:48.855Z,0.00
2019-01-21T01:52:48.854Z,0.00
2019-01-21T01:53:48.813Z,0.00
2019-01-21T01:54:48.824Z,0.00
2019-01-21T01:55:48.821Z,0.00
2019-01-21T01:56:48.756Z,0.00
2019-01-21T01:57:58.594Z,0.00
2019-01-21T01:59:53.474Z,0.00
2019-01-21T02:00:53.235Z,0.00
2019-01-21T02:01:53.186Z,0.00
2019-01-21T02:02:53.286Z,0.00
2019-01-21T02:03:53.172Z,0.00
2019-01-21T02:04:53.110Z,0.00
2019-01-21T02:05:53.145Z,0.00
2019-01-21T02:06:53.070Z,0.00
2019-01-21T02:07:53.105Z,0.00
2019-01-21T02:08:53.348Z,0.00
2019-01-21T02:09:53.371Z,0.00
2019-01-21T02:10:53.009Z,0.00
2019-01-21T02:11:53.042Z,0.00
2019-01-21T02:12:52.979Z,0.00
2019-01-21T02:13:52.971Z,0.00
2019-01-21T02:14:52.946Z,0.00
2019-01-21T02:15:52.936Z,0.00
2019-01-21T02:16:52.930Z,0.00
2019-01-21T02:17:52.904Z,0.00
2019-01-21T02:18:52.887Z,0.00
2019-01-21T02:19:52.881Z,0.00
2019-01-21T02:20:52.839Z,0.00
2019-01-21T02:21:52.849Z,0.00
2019-01-21T02:22:52.810Z,0.00
2019-01-21T02:23:52.797Z,0.00
2019-01-21T02:24:52.764Z,0.00
2019-01-21T02:25:52.752Z,0.00
2019-01-21T02:26:52.732Z,0.00
2019-01-21T02:27:52.727Z,0.00
2019-01-21T02:28:52.730Z,0.00
2019-01-21T02:29:52.680Z,0.00
2019-01-21T02:30:52.687Z,0.00
2019-01-21T02:31:52.746Z,0.00
2019-01-21T02:32:52.639Z,0.00
2019-01-21T02:33:52.678Z,0.00
2019-01-21T02:34:52.597Z,0.00
2019-01-21T02:35:52.734Z,0.00
2019-01-21T02:36:52.624Z,0.00
2019-01-21T02:37:52.583Z,0.00
2019-01-21T02:38:52.562Z,0.00
2019-01-21T02:39:52.534Z,0.00
2019-01-21T02:40:52.522Z,0.00
2019-01-21T02:41:52.489Z,0.00
2019-01-21T02:42:52.469Z,0.00
2019-01-21T02:43:52.446Z,0.00
2019-01-21T02:44:52.465Z,0.00
2019-01-21T02:45:52.472Z,0.00
2019-01-21T02:46:52.405Z,0.00
2019-01-21T02:47:59.852Z,0.00
2019-01-21T02:48:52.370Z,0.00
2019-01-21T02:49:52.389Z,0.00
2019-01-21T02:50:52.349Z,0.00
2019-01-21T02:51:52.339Z,0.00
2019-01-21T02:52:52.303Z,0.00
2019-01-21T02:53:52.309Z,0.00
2019-01-21T02:54:52.362Z,0.00
2019-01-21T02:55:52.396Z,0.00
2019-01-21T02:56:52.252Z,0.00
2019-01-21T02:57:52.247Z,0.00
2019-01-21T02:58:52.423Z,0.00
2019-01-21T03:14:28.776Z,0.00
2019-01-21T03:15:28.758Z,0.00
2019-01-21T03:16:28.719Z,0.00
2019-01-21T03:17:28.710Z,0.00
2019-01-21T03:18:28.677Z,0.00
2019-01-21T03:19:28.636Z,0.00
2019-01-21T03:20:28.637Z,0.00
2019-01-21T03:21:28.608Z,0.00
2019-01-21T03:22:28.616Z,0.00
2019-01-21T03:23:28.574Z,0.00
2019-01-21T03:24:29.762Z,0.00
2019-01-21T03:25:28.530Z,0.00
2019-01-21T03:26:28.568Z,0.00
2019-01-21T03:27:28.496Z,0.00
2019-01-21T03:28:28.456Z,0.00
2019-01-21T03:29:28.480Z,0.00
2019-01-21T03:30:28.422Z,0.00
2019-01-21T03:31:28.405Z,0.00
2019-01-21T03:32:28.435Z,0.00
2019-01-21T03:33:28.374Z,0.00
2019-01-21T03:34:28.351Z,0.00
2019-01-21T03:35:28.400Z,0.00
2019-01-21T03:36:28.355Z,0.00
2019-01-21T03:37:28.322Z,0.00
2019-01-21T03:38:28.309Z,0.00
2019-01-21T03:39:28.292Z,0.00
2019-01-21T03:40:28.263Z,0.00
2019-01-21T03:41:28.235Z,0.00
2019-01-21T03:42:28.243Z,0.00
2019-01-21T03:43:28.217Z,0.00
2019-01-21T03:44:28.202Z,0.00
2019-01-21T03:45:28.171Z,0.00
2019-01-21T03:46:28.136Z,0.00
2019-01-21T03:47:28.173Z,0.00
2019-01-21T03:48:28.109Z,0.00
2019-01-21T03:49:28.094Z,0.00
2019-01-21T03:50:28.092Z,0.00
2019-01-21T03:53:10.265Z,0.00
2019-01-21T03:54:00.173Z,0.00
2019-01-21T03:55:00.272Z,0.00
2019-01-21T03:56:00.132Z,0.00
2019-01-21T03:57:00.129Z,0.00
2019-01-21T03:58:00.092Z,0.00
2019-01-21T03:59:00.128Z,0.00
2019-01-21T04:00:00.097Z,0.00
2019-01-21T04:01:00.039Z,0.00
2019-01-21T04:02:00.044Z,0.00
2019-01-21T04:03:00.016Z,0.00
2019-01-21T04:04:00.018Z,0.00
2019-01-21T04:05:00.003Z,0.00
2019-01-21T04:06:08.629Z,0.00
2019-01-21T04:08:05.494Z,0.00
2019-01-21T04:09:05.414Z,0.00
2019-01-21T04:10:05.415Z,0.00
2019-01-21T04:11:05.395Z,0.00
2019-01-21T04:12:05.377Z,0.00
2019-01-21T04:13:05.351Z,0.00
2019-01-21T04:14:14.012Z,0.00
2019-01-21T04:16:10.848Z,0.00
2019-01-21T04:17:10.808Z,0.00
2019-01-21T04:18:10.777Z,0.00
2019-01-21T04:19:10.813Z,0.00
2019-01-21T04:20:10.723Z,0.00
2019-01-21T04:21:10.722Z,0.00
2019-01-21T04:22:10.684Z,0.00
2019-01-21T04:23:10.690Z,0.00
2019-01-21T04:24:10.695Z,0.00
2019-01-21T04:25:10.646Z,0.00
2019-01-21T04:26:10.618Z,0.00
2019-01-21T04:27:10.604Z,0.00
2019-01-21T04:28:10.607Z,0.00
2019-01-21T04:29:10.623Z,0.00
2019-01-21T04:30:10.584Z,0.00
2019-01-21T04:31:10.535Z,0.00
2019-01-21T04:32:10.524Z,0.00
2019-01-21T04:33:10.542Z,0.00
2019-01-21T04:34:10.477Z,0.00
2019-01-21T04:35:10.499Z,0.00
2019-01-21T04:36:10.447Z,0.00
2019-01-21T04:37:10.453Z,0.00
2019-01-21T04:38:10.406Z,0.00
2019-01-21T04:39:10.396Z,0.00
2019-01-21T04:40:10.373Z,0.00
2019-01-21T04:41:10.384Z,0.00
2019-01-21T04:42:10.366Z,0.00
2019-01-21T04:43:10.354Z,0.00
2019-01-21T04:44:10.313Z,0.00
2019-01-21T04:45:10.291Z,0.00
2019-01-21T04:46:10.307Z,0.00
2019-01-21T04:47:10.282Z,0.00
2019-01-21T04:48:10.265Z,0.00
2019-01-21T04:49:10.214Z,0.00
2019-01-21T04:50:10.204Z,0.00
2019-01-21T04:51:10.216Z,0.00
2019-01-21T04:52:10.205Z,0.00
2019-01-21T04:53:10.153Z,0.00
2019-01-21T04:54:10.135Z,0.00
2019-01-21T04:55:10.128Z,0.00
2019-01-21T04:56:10.098Z,0.00
2019-01-21T04:57:10.106Z,0.00
2019-01-21T04:58:10.071Z,0.00
2019-01-21T04:59:10.052Z,0.00
2019-01-21T05:00:10.093Z,0.00
2019-01-21T05:01:10.048Z,0.00
2019-01-21T05:02:10.041Z,0.00
2019-01-21T05:03:10.012Z,0.00
2019-01-21T05:04:09.979Z,0.00
2019-01-21T05:05:10.087Z,0.00
2019-01-21T05:06:09.930Z,0.00
2019-01-21T05:07:09.914Z,0.00
2019-01-21T05:08:09.940Z,0.00
2019-01-21T05:09:09.886Z,0.00
2019-01-21T05:10:09.856Z,0.00
2019-01-21T05:11:09.845Z,0.00
2019-01-21T05:12:09.826Z,0.00
2019-01-21T05:13:09.804Z,0.00
2019-01-21T05:14:09.792Z,0.00
2019-01-21T05:15:09.800Z,0.00
2019-01-21T05:16:09.779Z,0.00
2019-01-21T05:17:09.737Z,0.00
2019-01-21T05:18:09.731Z,0.00
2019-01-21T05:19:09.769Z,0.00
2019-01-21T05:20:09.697Z,0.00
2019-01-21T05:21:09.678Z,0.00
2019-01-21T05:22:09.706Z,0.00
2019-01-21T05:23:09.679Z,0.00
2019-01-21T05:24:09.663Z,0.00
2019-01-21T05:25:09.636Z,0.00
2019-01-21T05:26:09.636Z,0.00
2019-01-21T05:27:09.613Z,0.00
2019-01-21T05:28:09.596Z,0.00
2019-01-21T05:29:09.558Z,0.00
2019-01-21T05:30:09.548Z,0.00
2019-01-21T05:31:09.507Z,0.00
2019-01-21T05:33:48.976Z,0.00
2019-01-21T05:34:48.906Z,0.00
2019-01-21T05:35:48.872Z,0.00
2019-01-21T05:40:01.400Z,0.00
2019-01-21T05:41:01.303Z,0.00
2019-01-21T05:42:01.311Z,0.00
2019-01-21T05:43:01.317Z,0.00
2019-01-21T05:44:01.299Z,0.00
2019-01-21T05:45:01.232Z,0.00
2019-01-21T05:46:01.213Z,0.00
2019-01-21T05:47:01.202Z,0.00
2019-01-21T05:48:01.205Z,0.00
2019-01-21T05:49:01.186Z,0.00
2019-01-21T05:50:08.798Z,0.00
2019-01-21T05:52:41.563Z,0.00
2019-01-21T05:53:41.496Z,0.00
2019-01-21T05:54:41.481Z,0.00
2019-01-21T05:55:41.462Z,0.00
2019-01-21T05:56:41.436Z,0.00
2019-01-21T05:57:41.431Z,0.00
2019-01-21T05:58:41.403Z,0.00
2019-01-21T05:59:41.391Z,0.00
2019-01-21T06:00:41.371Z,0.00
2019-01-21T06:01:41.350Z,0.00
2019-01-21T06:02:41.344Z,0.00
2019-01-21T06:03:41.321Z,0.00
2019-01-21T06:04:41.340Z,0.00
2019-01-21T06:05:41.294Z,0.00
2019-01-21T06:06:41.303Z,0.00
2019-01-21T06:07:41.244Z,0.00
2019-01-21T06:08:41.231Z,0.00
2019-01-21T06:09:41.244Z,0.00
2019-01-21T06:10:41.214Z,0.00
2019-01-21T06:11:41.182Z,0.00
2019-01-21T06:12:41.185Z,0.00
2019-01-21T06:13:41.208Z,0.00
2019-01-21T06:14:41.396Z,0.00
2019-01-21T06:15:41.136Z,0.00
2019-01-21T06:16:41.133Z,0.00
2019-01-21T06:17:41.084Z,0.00
2019-01-21T06:18:41.089Z,0.00
2019-01-21T06:19:41.068Z,0.00
2019-01-21T06:20:41.023Z,0.00
2019-01-21T06:21:40.998Z,0.00
2019-01-21T06:22:41.035Z,0.00
2019-01-21T06:23:41.029Z,0.00
2019-01-21T06:24:41.049Z,0.00
2019-01-21T06:25:40.976Z,0.00
2019-01-21T06:26:40.928Z,0.00
2019-01-21T06:27:40.901Z,0.00
2019-01-21T06:28:40.897Z,0.00
2019-01-21T06:29:40.872Z,0.00
2019-01-21T06:30:40.844Z,0.00
2019-01-21T06:31:40.860Z,0.00
2019-01-21T06:32:40.813Z,0.00
2019-01-21T06:33:40.831Z,0.00
2019-01-21T06:34:40.785Z,0.00
2019-01-21T06:35:40.758Z,0.00
2019-01-21T06:36:40.751Z,0.00
2019-01-21T06:37:49.386Z,0.00
2019-01-21T06:39:45.245Z,0.00
2019-01-21T06:40:53.923Z,0.00
2019-01-21T06:42:38.583Z,4.00
2019-01-21T06:43:38.591Z,0.00
2019-01-21T06:44:38.568Z,0.00
2019-01-21T06:45:47.206Z,4.00
2019-01-21T06:47:43.020Z,4.00
2019-01-21T06:48:42.925Z,4.00
2019-01-21T06:49:42.925Z,4.00
2019-01-21T06:50:42.947Z,4.00
2019-01-21T06:51:42.898Z,4.00
2019-01-21T06:52:42.850Z,4.00
2019-01-21T06:53:42.851Z,8.00
2019-01-21T06:54:42.858Z,12.00
2019-01-21T06:55:42.817Z,12.00
2019-01-21T06:56:47.468Z,12.00
2019-01-21T06:57:42.770Z,12.00
2019-01-21T06:58:42.763Z,12.00
2019-01-21T06:59:42.734Z,16.00
2019-01-21T07:00:42.743Z,16.00
2019-01-21T07:01:42.694Z,20.00
2019-01-21T07:02:42.693Z,24.00
2019-01-21T07:03:42.661Z,28.00
2019-01-21T07:04:42.647Z,28.00
2019-01-21T07:05:42.630Z,32.00
2019-01-21T07:06:42.615Z,32.00
2019-01-21T07:07:42.612Z,36.00
2019-01-21T07:08:42.575Z,40.00
2019-01-21T07:09:42.579Z,44.00
2019-01-21T07:10:42.533Z,64.00
2019-01-21T07:11:42.538Z,68.00
2019-01-21T07:12:42.622Z,76.00
2019-01-21T07:13:42.492Z,84.00
2019-01-21T07:14:42.470Z,88.00
2019-01-21T07:15:42.460Z,92.00
2019-01-21T07:16:42.434Z,100.00
2019-01-21T07:17:42.437Z,108.00
2019-01-21T07:18:42.400Z,108.00
2019-01-21T07:19:42.385Z,120.00
2019-01-21T07:20:42.384Z,124.00
2019-01-21T07:21:42.339Z,132.00
2019-01-21T07:22:42.348Z,144.00
2019-01-21T07:23:42.312Z,156.00
2019-01-21T07:24:42.306Z,164.00
2019-01-21T07:25:42.268Z,172.00
2019-01-21T07:26:42.288Z,188.00
2019-01-21T07:27:42.233Z,196.00
2019-01-21T07:28:42.228Z,204.00
2019-01-21T07:29:42.197Z,216.00
2019-01-21T07:30:42.184Z,232.00
2019-01-21T07:31:42.193Z,240.00
2019-01-21T07:32:42.143Z,252.00
2019-01-21T07:33:42.127Z,264.00
2019-01-21T07:34:42.106Z,276.00
2019-01-21T07:35:42.117Z,288.00
2019-01-21T07:36:42.066Z,304.00
2019-01-21T07:37:42.088Z,316.00
2019-01-21T07:38:42.061Z,340.00
2019-01-21T07:39:42.025Z,356.00
2019-01-21T07:40:42.049Z,368.00
2019-01-21T07:41:42.014Z,384.00
2019-01-21T07:42:41.993Z,388.00
2019-01-21T07:43:41.951Z,404.00
2019-01-21T07:44:41.958Z,420.00
2019-01-21T07:45:50.570Z,440.00
2019-01-21T07:47:46.381Z,472.00
2019-01-21T07:48:55.242Z,484.00
2019-01-21T07:50:50.943Z,512.00
2019-01-21T07:51:50.822Z,512.00
2019-01-21T07:52:50.759Z,524.00
2019-01-21T07:53:50.755Z,408.00
2019-01-21T07:54:50.743Z,416.00
2019-01-21T07:55:50.704Z,420.00
2019-01-21T07:56:50.693Z,432.00
2019-01-21T07:57:50.666Z,448.00
2019-01-21T07:58:50.648Z,452.00
2019-01-21T07:59:50.636Z,468.00
2019-01-21T08:00:50.640Z,480.00
2019-01-21T08:01:50.602Z,484.00
2019-01-21T08:02:50.586Z,500.00
2019-01-21T08:03:50.558Z,508.00
2019-01-21T08:04:50.532Z,524.00
2019-01-21T08:05:50.566Z,520.00
2019-01-21T08:06:50.533Z,532.00
2019-01-21T08:07:50.516Z,560.00
2019-01-21T08:08:50.544Z,564.00
2019-01-21T08:09:50.476Z,616.00
2019-01-21T08:10:50.482Z,572.00
2019-01-21T08:11:50.434Z,584.00
2019-01-21T08:12:50.401Z,600.00
2019-01-21T08:13:50.403Z,596.00
2019-01-21T08:14:50.378Z,616.00
2019-01-21T08:15:50.393Z,616.00
2019-01-21T08:16:50.369Z,632.00
2019-01-21T08:17:50.360Z,664.00
2019-01-21T08:18:50.299Z,612.00
2019-01-21T08:19:50.311Z,632.00
2019-01-21T08:20:50.284Z,680.00
2019-01-21T08:21:50.234Z,676.00
2019-01-21T08:22:50.220Z,668.00
2019-01-21T08:23:50.205Z,680.00
2019-01-21T08:24:50.204Z,688.00
2019-01-21T08:25:50.213Z,696.00
2019-01-21T08:26:50.147Z,704.00
2019-01-21T08:27:50.142Z,704.00
2019-01-21T08:28:50.142Z,696.00
2019-01-21T08:29:58.763Z,712.00
2019-01-21T08:31:54.566Z,744.00
2019-01-21T08:32:54.571Z,736.00
2019-01-21T08:34:48.156Z,788.00
2019-01-21T08:35:48.107Z,748.00
2019-01-21T08:36:48.068Z,756.00
2019-01-21T08:37:48.062Z,740.00
2019-01-21T08:38:48.039Z,816.00
2019-01-21T08:39:48.779Z,764.00
2019-01-21T08:40:47.998Z,780.00
2019-01-21T08:41:47.980Z,756.00
2019-01-21T08:42:47.992Z,956.00
2019-01-21T08:43:47.949Z,788.00
2019-01-21T08:44:47.926Z,728.00
2019-01-21T08:45:47.909Z,792.00
2019-01-21T08:46:47.896Z,808.00
2019-01-21T08:47:47.880Z,816.00
2019-01-21T08:48:47.858Z,836.00
2019-01-21T08:49:47.858Z,812.00
2019-01-21T08:50:47.863Z,784.00
2019-01-21T08:51:47.836Z,792.00
2019-01-21T08:52:47.799Z,804.00
2019-01-21T08:53:47.771Z,804.00
2019-01-21T08:54:47.751Z,828.00
2019-01-21T08:55:47.741Z,828.00
2019-01-21T08:56:47.730Z,804.00
2019-01-21T08:57:47.730Z,812.00
2019-01-21T08:58:47.689Z,828.00
2019-01-21T08:59:47.669Z,812.00
2019-01-21T09:00:47.642Z,816.00
2019-01-21T09:01:47.635Z,820.00
2019-01-21T09:02:47.652Z,812.00
2019-01-21T09:03:47.588Z,884.00
2019-01-21T09:04:47.579Z,800.00
2019-01-21T09:05:47.559Z,832.00
2019-01-21T09:06:47.539Z,800.00
2019-01-21T09:07:47.548Z,828.00
2019-01-21T09:08:47.512Z,820.00
2019-01-21T09:09:47.512Z,796.00
2019-01-21T09:10:47.479Z,832.00
2019-01-21T09:11:47.475Z,820.00
2019-01-21T09:12:47.435Z,776.00
2019-01-21T09:13:47.422Z,824.00
2019-01-21T09:14:47.408Z,844.00
2019-01-21T09:15:47.428Z,800.00
2019-01-21T09:16:47.411Z,816.00
2019-01-21T09:17:47.379Z,828.00
2019-01-21T09:18:47.346Z,824.00
2019-01-21T09:19:47.330Z,812.00
2019-01-21T09:20:47.312Z,840.00
2019-01-21T09:21:47.293Z,808.00
2019-01-21T09:22:47.327Z,888.00
2019-01-21T09:23:47.287Z,828.00
2019-01-21T09:24:47.269Z,864.00
2019-01-21T09:25:47.326Z,828.00
2019-01-21T09:26:47.225Z,840.00
2019-01-21T09:27:47.191Z,852.00
2019-01-21T09:28:47.187Z,812.00
2019-01-21T09:29:47.160Z,824.00
2019-01-21T09:30:47.172Z,844.00
2019-01-21T09:31:47.140Z,852.00
2019-01-21T09:32:47.119Z,872.00
2019-01-21T09:33:47.115Z,896.00
2019-01-21T09:34:47.071Z,816.00
2019-01-21T09:35:47.073Z,864.00
2019-01-21T09:36:47.042Z,840.00
2019-01-21T09:37:47.050Z,844.00
2019-01-21T09:38:47.282Z,760.00
2019-01-21T09:39:47.002Z,792.00
2019-01-21T09:40:46.983Z,812.00
2019-01-21T09:41:46.972Z,820.00
2019-01-21T09:42:46.965Z,816.00
2019-01-21T09:43:46.931Z,780.00
2019-01-21T09:44:46.905Z,844.00
2019-01-21T09:45:56.404Z,836.00
2019-01-21T09:47:40.525Z,764.00
2019-01-21T09:48:40.487Z,868.00
2019-01-21T09:49:43.784Z,796.00
2019-01-21T09:50:40.480Z,808.00
2019-01-21T09:51:40.408Z,824.00
2019-01-21T09:52:40.399Z,788.00
2019-01-21T09:53:40.365Z,760.00
2019-01-21T09:54:40.341Z,836.00
2019-01-21T09:55:40.338Z,784.00
2019-01-21T09:56:40.317Z,788.00
2019-01-21T09:57:40.295Z,808.00
2019-01-21T09:58:40.282Z,812.00
2019-01-21T09:59:40.263Z,852.00
2019-01-21T10:00:40.255Z,800.00
2019-01-21T10:01:40.249Z,764.00
2019-01-21T10:02:40.231Z,868.00
2019-01-21T10:03:40.208Z,792.00
2019-01-21T10:04:40.188Z,796.00
2019-01-21T10:05:40.176Z,776.00
2019-01-21T10:06:40.172Z,832.00
2019-01-21T10:07:40.151Z,816.00
2019-01-21T10:08:40.142Z,796.00
2019-01-21T10:09:40.106Z,808.00
2019-01-21T10:10:40.115Z,820.00
2019-01-21T10:11:40.073Z,748.00
2019-01-21T10:12:40.051Z,792.00
2019-01-21T10:13:40.035Z,844.00
2019-01-21T10:14:40.022Z,780.00
2019-01-21T10:15:40.050Z,764.00
2019-01-21T10:16:39.988Z,832.00
2019-01-21T10:17:39.969Z,800.00
2019-01-21T10:18:39.997Z,824.00
2019-01-21T10:19:39.941Z,776.00
2019-01-21T10:20:39.951Z,776.00
2019-01-21T10:21:39.919Z,776.00
2019-01-21T10:22:39.886Z,868.00
2019-01-21T10:23:39.884Z,716.00
2019-01-21T10:24:39.876Z,760.00
2019-01-21T10:25:39.845Z,740.00
2019-01-21T10:26:39.829Z,772.00
2019-01-21T10:27:39.810Z,760.00
2019-01-21T10:28:39.789Z,728.00
2019-01-21T10:29:39.816Z,792.00
2019-01-21T10:30:39.832Z,792.00
2019-01-21T10:31:39.744Z,740.00
2019-01-21T10:32:39.730Z,764.00
2019-01-21T10:33:39.712Z,620.00
2019-01-21T10:34:39.695Z,796.00
2019-01-21T10:35:39.686Z,800.00
2019-01-21T10:36:39.690Z,780.00
2019-01-21T10:37:39.642Z,748.00
2019-01-21T10:38:39.663Z,736.00
2019-01-21T10:39:39.619Z,740.00
2019-01-21T10:40:39.602Z,864.00
2019-01-21T10:41:39.582Z,732.00
2019-01-21T10:42:39.564Z,756.00
2019-01-21T10:43:39.575Z,776.00
2019-01-21T10:44:39.537Z,752.00
2019-01-21T10:45:39.517Z,744.00
2019-01-21T10:46:39.512Z,748.00
2019-01-21T10:47:39.516Z,744.00
2019-01-21T10:48:39.480Z,752.00
2019-01-21T10:49:39.474Z,756.00
2019-01-21T10:50:39.470Z,736.00
2019-01-21T10:51:39.449Z,704.00
2019-01-21T10:52:39.437Z,744.00
2019-01-21T10:53:39.394Z,728.00
2019-01-21T10:54:39.411Z,768.00
2019-01-21T10:55:39.362Z,740.00
2019-01-21T10:56:39.345Z,764.00
2019-01-21T10:57:39.348Z,736.00
2019-01-21T10:58:39.347Z,780.00
2019-01-21T10:59:39.296Z,752.00
2019-01-21T11:00:39.308Z,684.00
2019-01-21T11:01:39.274Z,744.00
2019-01-21T11:02:39.246Z,732.00
2019-01-21T11:03:39.237Z,732.00
2019-01-21T11:04:39.230Z,712.00
2019-01-21T11:05:39.233Z,748.00
2019-01-21T11:06:39.195Z,740.00
2019-01-21T11:07:39.197Z,812.00
2019-01-21T11:08:39.160Z,668.00
2019-01-21T11:09:39.139Z,728.00
2019-01-21T11:10:39.125Z,664.00
2019-01-21T11:11:39.137Z,736.00
2019-01-21T11:12:39.099Z,744.00
2019-01-21T11:13:39.113Z,860.00
2019-01-21T11:14:39.084Z,712.00
2019-01-21T11:15:39.056Z,708.00
2019-01-21T11:16:39.034Z,740.00
2019-01-21T11:17:39.020Z,728.00
2019-01-21T11:18:39.010Z,792.00
2019-01-21T11:19:38.985Z,776.00
2019-01-21T11:20:38.998Z,784.00
2019-01-21T11:21:38.985Z,764.00
2019-01-21T11:22:38.958Z,728.00
2019-01-21T11:23:38.947Z,708.00
2019-01-21T11:24:38.912Z,744.00
2019-01-21T11:25:38.915Z,732.00
2019-01-21T11:26:38.872Z,584.00
2019-01-21T11:27:38.872Z,700.00
2019-01-21T11:28:38.879Z,708.00
2019-01-21T11:29:38.836Z,880.00
2019-01-21T11:30:38.819Z,732.00
2019-01-21T11:31:38.824Z,784.00
2019-01-21T11:32:38.811Z,724.00
2019-01-21T11:33:38.782Z,712.00
2019-01-21T11:34:38.739Z,712.00
2019-01-21T11:35:38.757Z,716.00
2019-01-21T11:36:38.714Z,712.00
2019-01-21T11:37:38.727Z,724.00
2019-01-21T11:38:38.732Z,748.00
2019-01-21T11:39:38.670Z,776.00
2019-01-21T11:40:47.302Z,576.00
2019-01-21T11:42:32.050Z,768.00
2019-01-21T11:43:32.017Z,752.00
2019-01-21T11:44:32.003Z,736.00
2019-01-21T11:45:31.984Z,732.00
2019-01-21T11:46:31.981Z,888.00
2019-01-21T11:47:31.966Z,724.00
2019-01-21T11:48:31.935Z,696.00
2019-01-21T11:49:31.927Z,640.00
2019-01-21T11:50:31.930Z,712.00
2019-01-21T11:51:31.903Z,748.00
2019-01-21T11:52:31.891Z,700.00
2019-01-21T11:53:31.863Z,704.00
2019-01-21T11:54:31.843Z,752.00
2019-01-21T11:55:31.857Z,676.00
2019-01-21T11:56:31.814Z,736.00
2019-01-21T11:57:31.797Z,692.00
2019-01-21T11:58:31.813Z,704.00
2019-01-21T11:59:31.767Z,692.00
2019-01-21T12:00:31.771Z,748.00
2019-01-21T12:01:32.123Z,736.00
2019-01-21T12:02:31.755Z,704.00
2019-01-21T12:03:31.703Z,692.00
2019-01-21T12:04:31.697Z,704.00
2019-01-21T12:05:31.705Z,676.00
2019-01-21T12:06:31.683Z,696.00
2019-01-21T12:07:31.645Z,704.00
2019-01-21T12:08:31.662Z,700.00
2019-01-21T12:09:31.645Z,704.00
2019-01-21T12:10:31.622Z,680.00
2019-01-21T12:11:31.635Z,700.00
2019-01-21T12:12:31.612Z,696.00
2019-01-21T12:13:31.579Z,708.00
2019-01-21T12:14:31.561Z,756.00
2019-01-21T12:15:31.537Z,704.00
2019-01-21T12:16:31.512Z,712.00
2019-01-21T12:17:31.512Z,704.00
2019-01-21T12:18:31.483Z,692.00
2019-01-21T12:19:31.510Z,720.00
2019-01-21T12:20:31.460Z,712.00
2019-01-21T12:21:31.475Z,712.00
2019-01-21T12:22:31.456Z,672.00
2019-01-21T12:23:31.410Z,704.00
2019-01-21T12:24:31.438Z,696.00
2019-01-21T12:25:31.399Z,704.00
2019-01-21T12:26:31.407Z,692.00
2019-01-21T12:27:31.365Z,684.00
2019-01-21T12:28:31.374Z,684.00
2019-01-21T12:29:31.324Z,716.00
2019-01-21T12:30:31.318Z,680.00
2019-01-21T12:31:31.305Z,700.00
2019-01-21T12:32:31.274Z,692.00
2019-01-21T12:33:31.298Z,692.00
2019-01-21T12:34:31.272Z,688.00
2019-01-21T12:35:31.289Z,696.00
2019-01-21T12:36:31.247Z,656.00
2019-01-21T12:37:31.204Z,680.00
2019-01-21T12:38:31.207Z,640.00
2019-01-21T12:39:31.197Z,684.00
2019-01-21T12:40:31.154Z,668.00
2019-01-21T12:41:31.165Z,716.00
2019-01-21T12:42:31.127Z,680.00
2019-01-21T12:43:31.171Z,660.00
2019-01-21T12:44:31.106Z,648.00
2019-01-21T12:45:31.087Z,544.00
2019-01-21T12:46:31.071Z,700.00
2019-01-21T12:47:31.081Z,680.00
2019-01-21T12:48:31.076Z,660.00
2019-01-21T12:49:31.022Z,680.00
2019-01-21T12:50:31.049Z,672.00
2019-01-21T12:51:31.014Z,672.00
2019-01-21T12:52:30.981Z,668.00
2019-01-21T12:53:30.978Z,668.00
2019-01-21T12:54:30.982Z,668.00
2019-01-21T12:55:30.957Z,672.00
2019-01-21T12:56:30.925Z,668.00
2019-01-21T12:57:30.952Z,664.00
2019-01-21T12:58:30.898Z,668.00
2019-01-21T12:59:30.947Z,668.00
2019-01-21T13:00:30.863Z,664.00
2019-01-21T13:01:30.892Z,668.00
2019-01-21T13:02:30.864Z,672.00
2019-01-21T13:03:30.835Z,668.00
2019-01-21T13:04:30.808Z,676.00
2019-01-21T13:05:30.834Z,660.00
2019-01-21T13:06:30.808Z,672.00
2019-01-21T13:07:30.782Z,680.00
2019-01-21T13:08:30.761Z,616.00
2019-01-21T13:09:30.771Z,664.00
2019-01-21T13:10:30.715Z,688.00
2019-01-21T13:11:30.710Z,668.00
2019-01-21T13:12:30.745Z,660.00
2019-01-21T13:13:30.715Z,652.00
2019-01-21T13:14:30.665Z,656.00
2019-01-21T13:15:30.699Z,692.00
2019-01-21T13:16:30.635Z,644.00
2019-01-21T13:17:30.628Z,656.00
2019-01-21T13:18:30.659Z,688.00
2019-01-21T13:19:30.594Z,672.00
2019-01-21T13:20:30.900Z,648.00
2019-01-21T13:21:34.685Z,676.00
2019-01-21T13:22:30.595Z,644.00
2019-01-21T13:23:30.552Z,656.00
2019-01-21T13:24:30.554Z,656.00
2019-01-21T13:25:30.509Z,640.00
2019-01-21T13:26:30.494Z,644.00
2019-01-21T13:27:30.484Z,636.00
2019-01-21T13:28:30.497Z,644.00
2019-01-21T13:29:30.474Z,652.00
2019-01-21T13:30:30.446Z,648.00
2019-01-21T13:31:30.489Z,636.00